Time;durP1;ratioP1;P1;durP2;ratioP2;P2;SDS_P1;SDS_P2;PMS_P1;PMS_P2;Temp;Humidity;BMP_temperature;BMP_pressure;BME280_temperature;BME280_humidity;BME280_pressure;Samples;Min_cycle;Max_cycle;Signal;HPM_P1;HPM_P2
2023/07/30 00:02:18;;;;;;;;;;;;;;;17.78;100.00;99801.94;104888;1263;72737;-62
2023/07/30 00:04:45;;;;;;;;;;;;;;;17.77;100.00;99803.66;105119;1262;62223;-64
2023/07/30 00:07:12;;;;;;;;;;;;;;;17.76;100.00;99801.31;104906;1259;61346;-62
2023/07/30 00:09:39;;;;;;;;;;;;;;;17.75;100.00;99801.09;105422;1262;75376;-62
2023/07/30 00:12:06;;;;;;;;;;;;;;;17.72;100.00;99805.10;104886;1264;66102;-62
2023/07/30 00:14:34;;;;;;;;;;;;;;;17.69;100.00;99807.70;104930;1263;71859;-62
2023/07/30 00:17:00;;;;;;;;;;;;;;;17.66;100.00;99807.22;104837;1258;62122;-62
2023/07/30 00:19:27;;;;;;;;;;;;;;;17.62;100.00;99805.36;104633;1258;61257;-61
2023/07/30 00:21:54;;;;;;;;;;;;;;;17.56;100.00;99810.90;104943;1261;75402;-62
2023/07/30 00:24:21;;;;;;;;;;;;;;;17.46;100.00;99810.33;105036;1263;68392;-61
2023/07/30 00:26:48;;;;;;;;;;;;;;;17.35;100.00;99809.46;105109;1260;71927;-63
2023/07/30 00:29:15;;;;;;;;;;;;;;;17.24;100.00;99808.89;105283;1263;61319;-62
2023/07/30 00:31:42;;;;;;;;;;;;;;;17.13;100.00;99812.41;105150;1262;61557;-61
2023/07/30 00:34:09;;;;;;;;;;;;;;;17.03;100.00;99812.48;104936;1259;75336;-61
2023/07/30 00:36:36;;;;;;;;;;;;;;;16.93;100.00;99812.09;104912;1263;67483;-61
2023/07/30 00:39:03;;;;;;;;;;;;;;;16.84;100.00;99811.51;105146;1263;70688;-64
2023/07/30 00:41:30;;;;;;;;;;;;;;;16.75;100.00;99811.28;105335;1263;61461;-62
2023/07/30 00:43:57;;;;;;;;;;;;;;;16.67;100.00;99816.94;105144;1262;61235;-65
2023/07/30 00:46:24;;;;;;;;;;;;;;;16.59;100.00;99817.63;104925;1264;74141;-62
2023/07/30 00:48:51;;;;;;;;;;;;;;;16.53;100.00;99815.18;105244;1264;66088;-62
2023/07/30 00:51:18;;;;;;;;;;;;;;;16.47;100.00;99813.49;105073;1265;72943;-63
2023/07/30 00:53:45;;;;;;;;;;;;;;;16.41;100.00;99814.20;104895;1260;62812;-64
2023/07/30 00:56:13;;;;;;;;;;;;;;;16.35;100.00;99820.30;104736;1272;62607;-62
2023/07/30 00:58:41;;;;;;;;;;;;;;;16.29;100.00;99822.71;104868;1265;76532;-62
2023/07/30 01:01:08;;;;;;;;;;;;;;;16.25;100.00;99826.20;105183;1264;67223;-63
2023/07/30 01:03:35;;;;;;;;;;;;;;;16.22;100.00;99827.59;104813;1264;73930;-63
2023/07/30 01:06:02;;;;;;;;;;;;;;;16.20;100.00;99829.13;104933;1267;61640;-64
2023/07/30 01:08:29;;;;;;;;;;;;;;;16.18;100.00;99831.79;104883;1264;61212;-64
2023/07/30 01:10:57;;;;;;;;;;;;;;;16.16;100.00;99832.36;105204;1261;76106;-61
2023/07/30 01:13:24;;;;;;;;;;;;;;;16.15;100.00;99833.45;104870;1263;67199;-65
2023/07/30 01:15:51;;;;;;;;;;;;;;;16.14;100.00;99831.60;104888;1263;73040;-62
2023/07/30 01:18:18;;;;;;;;;;;;;;;16.12;100.00;99832.95;105161;1260;62764;-62
2023/07/30 01:20:45;;;;;;;;;;;;;;;16.09;100.00;99834.38;105151;1264;61221;-62
2023/07/30 01:23:12;;;;;;;;;;;;;;;16.06;100.00;99841.30;104986;1263;74991;-63
2023/07/30 01:25:39;;;;;;;;;;;;;;;16.04;100.00;99837.31;104983;1264;67904;-63
2023/07/30 01:28:06;;;;;;;;;;;;;;;16.04;100.00;99834.83;105026;1261;72239;-64
2023/07/30 01:30:42;;;;;;;;;;;;;;;16.04;100.00;99838.62;104685;1259;62148;-61
2023/07/30 01:33:10;;;;;;;;;;;;;;;16.07;100.00;99841.89;104851;1261;61257;-61
2023/07/30 01:35:37;;;;;;;;;;;;;;;16.11;100.00;99844.66;104923;1260;74216;-62
2023/07/30 01:38:05;;;;;;;;;;;;;;;16.15;100.00;99843.36;105186;1260;67349;-65
2023/07/30 01:40:32;;;;;;;;;;;;;;;16.20;100.00;99843.55;104639;1264;73859;-61
2023/07/30 01:42:59;;;;;;;;;;;;;;;16.26;100.00;99845.51;104911;1261;62466;-61
2023/07/30 01:45:26;;;;;;;;;;;;;;;16.33;100.00;99848.14;104667;1260;61272;-62
2023/07/30 01:47:53;;;;;;;;;;;;;;;16.40;100.00;99852.23;104830;1260;73661;-61
2023/07/30 01:50:20;;;;;;;;;;;;;;;16.46;100.00;99856.04;104905;1263;66661;-61
2023/07/30 01:52:47;;;;;;;;;;;;;;;16.51;100.00;99855.16;104941;1263;72792;-61
2023/07/30 01:55:15;;;;;;;;;;;;;;;16.57;100.00;99858.63;104969;1260;62375;-61
2023/07/30 01:57:42;;;;;;;;;;;;;;;16.60;100.00;99856.29;105087;1267;61317;-64
2023/07/30 02:00:09;;;;;;;;;;;;;;;16.63;100.00;99854.70;104971;1266;74047;-63
2023/07/30 02:02:37;;;;;;;;;;;;;;;16.66;100.00;99855.94;104833;1265;69076;-63
2023/07/30 02:05:04;;;;;;;;;;;;;;;16.69;100.00;99859.60;104817;1270;72713;-63
2023/07/30 02:07:31;;;;;;;;;;;;;;;16.71;100.00;99861.09;104881;1259;61283;-63
2023/07/30 02:09:58;;;;;;;;;;;;;;;16.75;100.00;99858.73;104970;1263;61337;-63
2023/07/30 02:12:25;;;;;;;;;;;;;;;16.85;100.00;99858.08;105072;1264;75391;-65
2023/07/30 02:14:52;;;;;;;;;;;;;;;16.98;100.00;99857.38;104835;1263;65892;-62
2023/07/30 02:17:19;;;;;;;;;;;;;;;17.09;100.00;99858.70;104887;1264;72588;-63
2023/07/30 02:19:46;;;;;;;;;;;;;;;17.15;100.00;99860.68;104672;1262;61353;-63
2023/07/30 02:22:12;;;;;;;;;;;;;;;17.16;100.00;99860.13;104813;1261;61167;-62
2023/07/30 02:24:41;;;;;;;;;;;;;;;17.13;100.00;99856.74;104986;1263;75382;-63
2023/07/30 02:27:08;;;;;;;;;;;;;;;17.07;100.00;99859.70;104992;1264;67685;-62
2023/07/30 02:29:35;;;;;;;;;;;;;;;17.04;100.00;99866.06;104888;1263;72562;-65
2023/07/30 02:32:02;;;;;;;;;;;;;;;17.05;100.00;99861.45;105094;1261;61316;-62
2023/07/30 02:34:29;;;;;;;;;;;;;;;17.16;100.00;99859.92;104854;1263;61267;-63
2023/07/30 02:36:56;;;;;;;;;;;;;;;17.26;100.00;99861.99;104929;1261;72891;-62
2023/07/30 02:39:23;;;;;;;;;;;;;;;17.35;100.00;99858.45;104912;1262;65159;-63
2023/07/30 02:41:49;;;;;;;;;;;;;;;17.41;100.00;99853.29;105374;1263;71436;-62
2023/07/30 02:44:16;;;;;;;;;;;;;;;17.48;100.00;99857.52;104805;1261;62854;-62
2023/07/30 02:46:43;;;;;;;;;;;;;;;17.50;100.00;99859.61;105170;1261;61097;-65
2023/07/30 02:49:10;;;;;;;;;;;;;;;17.50;100.00;99862.23;104860;1259;73538;-62
2023/07/30 02:51:37;;;;;;;;;;;;;;;17.50;100.00;99864.36;105510;1260;318342;-62
2023/07/30 02:54:05;;;;;;;;;;;;;;;17.48;100.00;99871.29;105020;1261;71329;-63
2023/07/30 02:56:32;;;;;;;;;;;;;;;17.49;100.00;99872.19;104939;1263;61207;-62
2023/07/30 02:58:59;;;;;;;;;;;;;;;17.53;100.00;99872.17;104971;1260;61260;-65
2023/07/30 03:01:26;;;;;;;;;;;;;;;17.58;100.00;99870.55;105205;1265;74895;-62
2023/07/30 03:03:53;;;;;;;;;;;;;;;17.65;100.00;99868.70;105334;1264;68347;-63
2023/07/30 03:06:20;;;;;;;;;;;;;;;17.81;100.00;99869.20;105028;1261;72825;-62
2023/07/30 03:08:47;;;;;;;;;;;;;;;18.13;100.00;99867.52;104924;1260;61228;-62
2023/07/30 03:11:14;;;;;;;;;;;;;;;18.63;100.00;99867.77;105359;1260;61237;-65
2023/07/30 03:13:41;;;;;;;;;;;;;;;19.48;100.00;99863.09;104948;1261;73703;-65
2023/07/30 03:16:08;;;;;;;;;;;;;;;20.55;100.00;99861.86;104947;1264;67228;-62
2023/07/30 03:18:35;;;;;;;;;;;;;;;21.70;100.00;99854.52;105023;1264;72737;-62
2023/07/30 03:21:03;;;;;;;;;;;;;;;22.87;100.00;99845.02;105185;1260;63585;-62
2023/07/30 03:23:30;;;;;;;;;;;;;;;23.95;100.00;99827.09;104898;1260;61361;-62
2023/07/30 03:25:57;;;;;;;;;;;;;;;24.94;100.00;99802.52;104913;1263;74692;-62
2023/07/30 03:28:24;;;;;;;;;;;;;;;25.86;100.00;99790.28;104691;1264;67244;-62
2023/07/30 03:30:51;;;;;;;;;;;;;;;26.64;100.00;99778.15;105201;1262;73522;-62
2023/07/30 03:33:18;;;;;;;;;;;;;;;27.26;100.00;99774.63;105167;1260;61289;-65
2023/07/30 03:35:45;;;;;;;;;;;;;;;27.88;100.00;99773.49;104932;1263;61167;-63
2023/07/30 03:38:12;;;;;;;;;;;;;;;28.51;100.00;99773.83;104686;1263;76412;-65
2023/07/30 03:40:39;;;;;;;;;;;;;;;29.02;100.00;99772.43;104599;1263;65461;-62
2023/07/30 03:43:06;;;;;;;;;;;;;;;29.49;100.00;99775.85;105247;1259;74435;-62
2023/07/30 03:45:33;;;;;;;;;;;;;;;30.05;100.00;99772.16;104920;1261;61307;-62
2023/07/30 03:48:00;;;;;;;;;;;;;;;30.63;100.00;99774.11;104843;1263;61357;-63
2023/07/30 03:50:28;;;;;;;;;;;;;;;31.05;100.00;99777.14;105033;1261;74781;-64
2023/07/30 03:52:55;;;;;;;;;;;;;;;31.38;100.00;99778.69;104926;1262;67804;-63
2023/07/30 03:55:22;;;;;;;;;;;;;;;31.66;100.00;99786.17;105095;1261;73155;-63
2023/07/30 03:57:49;;;;;;;;;;;;;;;31.99;97.56;99791.45;104921;1263;61292;-63
2023/07/30 04:00:16;;;;;;;;;;;;;;;32.22;92.02;99796.86;105004;1263;61177;-62
2023/07/30 04:02:43;;;;;;;;;;;;;;;32.45;89.14;99793.92;105017;1262;74648;-65
2023/07/30 04:05:10;;;;;;;;;;;;;;;32.81;84.24;99796.91;105463;1259;66289;-64
2023/07/30 04:07:37;;;;;;;;;;;;;;;33.16;77.62;99795.09;104911;1260;73303;-62
2023/07/30 04:10:08;;;;;;;;;;;;;;;33.46;72.44;99792.85;104857;1262;61273;-62
2023/07/30 04:12:35;;;;;;;;;;;;;;;33.68;67.55;99796.11;105132;1260;61528;-65
2023/07/30 04:15:02;;;;;;;;;;;;;;;33.90;66.15;99797.11;104646;1263;66619;-62
2023/07/30 04:17:29;;;;;;;;;;;;;;;34.24;62.96;99799.73;105164;1260;61298;-63
2023/07/30 04:19:56;;;;;;;;;;;;;;;34.50;58.27;99803.31;104926;1263;64712;-61
2023/07/30 04:22:23;;;;;;;;;;;;;;;34.67;55.14;99802.36;104826;1260;61278;-60
2023/07/30 04:24:49;;;;;;;;;;;;;;;34.76;52.88;99798.83;105231;1259;61253;-61
2023/07/30 04:27:16;;;;;;;;;;;;;;;34.85;52.23;99797.83;105118;1262;67762;-63
2023/07/30 04:29:44;;;;;;;;;;;;;;;35.00;52.10;99799.67;104884;1261;61272;-63
2023/07/30 04:32:11;;;;;;;;;;;;;;;35.29;51.04;99800.84;104858;1263;64149;-62
2023/07/30 04:34:38;;;;;;;;;;;;;;;35.57;48.16;99803.52;105221;1260;61330;-64
2023/07/30 04:37:05;;;;;;;;;;;;;;;35.74;46.32;99800.46;104834;1260;61291;-62
2023/07/30 04:39:34;;;;;;;;;;;;;;;35.89;44.74;99802.63;105039;1261;65668;-63
2023/07/30 04:42:01;;;;;;;;;;;;;;;36.01;44.20;99803.83;104938;1262;61376;-60
2023/07/30 04:44:29;;;;;;;;;;;;;;;36.13;43.75;99806.33;105081;1262;71640;-60
2023/07/30 04:47:01;;;;;;;;;;;;;;;36.25;43.38;99804.94;105028;1264;61374;-61
2023/07/30 04:49:28;;;;;;;;;;;;;;;36.45;43.39;99805.52;105124;1263;61231;-61
2023/07/30 04:51:55;;;;;;;;;;;;;;;36.82;42.07;99809.33;104654;1262;67979;-61
2023/07/30 04:54:22;;;;;;;;;;;;;;;37.14;40.25;99807.90;104907;1260;61321;-60
2023/07/30 04:56:48;;;;;;;;;;;;;;;37.34;39.79;99808.32;105137;1260;64201;-64
2023/07/30 04:59:15;;;;;;;;;;;;;;;37.53;39.16;99808.59;104911;1261;61349;-62
2023/07/30 05:01:42;;;;;;;;;;;;;;;37.57;38.55;99812.20;104954;1261;61682;-65
2023/07/30 05:04:09;;;;;;;;;;;;;;;37.34;38.52;99812.13;104860;1261;65432;-62
2023/07/30 05:06:36;;;;;;;;;;;;;;;37.00;39.34;99814.66;105350;1262;61337;-62
2023/07/30 05:09:03;;;;;;;;;;;;;;;36.69;40.89;99818.73;104999;1262;71405;-64
2023/07/30 05:11:30;;;;;;;;;;;;;;;36.74;42.08;99820.87;105018;1262;61337;-63
2023/07/30 05:13:57;;;;;;;;;;;;;;;37.06;40.87;99822.25;105079;1260;61128;-62
2023/07/30 05:16:25;;;;;;;;;;;;;;;37.42;39.52;99822.38;104992;1260;65698;-63
2023/07/30 05:18:52;;;;;;;;;;;;;;;37.77;38.03;99824.86;104938;1260;60033;-64
2023/07/30 05:21:18;;;;;;;;;;;;;;;37.91;37.16;99823.73;104594;1261;64547;-62
2023/07/30 05:23:45;;;;;;;;;;;;;;;37.92;36.68;99825.31;104924;1263;61247;-63
2023/07/30 05:26:12;;;;;;;;;;;;;;;38.05;36.85;99819.09;105391;1258;61299;-62
2023/07/30 05:28:39;;;;;;;;;;;;;;;38.27;35.97;99819.29;105155;1260;65862;-61
2023/07/30 05:31:06;;;;;;;;;;;;;;;38.05;36.04;99819.94;105044;1260;61247;-62
2023/07/30 05:33:33;;;;;;;;;;;;;;;37.73;38.10;99824.36;104798;1263;64803;-63
2023/07/30 05:36:00;;;;;;;;;;;;;;;37.75;39.05;99822.98;105155;1263;61135;-64
2023/07/30 05:38:27;;;;;;;;;;;;;;;37.86;39.40;99816.00;105130;1259;61238;-63
2023/07/30 05:40:54;;;;;;;;;;;;;;;38.17;38.79;99812.31;105240;1262;66629;-64
2023/07/30 05:43:21;;;;;;;;;;;;;;;38.36;36.69;99810.80;104892;1260;61146;-63
2023/07/30 05:45:48;;;;;;;;;;;;;;;38.32;36.26;99810.45;104912;1260;64601;-61
2023/07/30 05:48:15;;;;;;;;;;;;;;;38.32;36.66;99814.02;105070;1259;61273;-62
2023/07/30 05:50:42;;;;;;;;;;;;;;;38.40;36.57;99811.98;104907;1259;61244;-63
2023/07/30 05:53:09;;;;;;;;;;;;;;;38.55;36.14;99812.52;104990;1262;66552;-62
2023/07/30 05:55:36;;;;;;;;;;;;;;;38.74;35.38;99808.09;104957;1259;61260;-62
2023/07/30 05:58:02;;;;;;;;;;;;;;;38.82;34.88;99811.79;104962;1260;63811;-61
2023/07/30 06:00:29;;;;;;;;;;;;;;;38.88;35.62;99808.77;105168;1259;61662;-63
2023/07/30 06:02:56;;;;;;;;;;;;;;;39.14;35.60;99808.04;105103;1263;61257;-64
2023/07/30 06:05:23;;;;;;;;;;;;;;;39.44;34.93;99803.80;104681;1259;66933;-62
2023/07/30 06:07:50;;;;;;;;;;;;;;;39.78;35.23;99805.58;105622;1260;61288;-62
2023/07/30 06:10:17;;;;;;;;;;;;;;;40.19;34.29;99804.66;104951;1260;65444;-62
2023/07/30 06:12:44;;;;;;;;;;;;;;;40.50;31.85;99804.17;104970;1260;61306;-61
2023/07/30 06:15:11;;;;;;;;;;;;;;;40.53;31.33;99804.01;105115;1261;61240;-63
2023/07/30 06:17:38;;;;;;;;;;;;;;;40.44;31.49;99807.23;105653;1259;67680;-62
2023/07/30 06:20:05;;;;;;;;;;;;;;;40.45;31.87;99803.73;104947;1260;61346;-62
2023/07/30 06:22:32;;;;;;;;;;;;;;;40.62;31.94;99804.98;104968;1260;62941;-61
2023/07/30 06:24:59;;;;;;;;;;;;;;;40.79;31.03;99805.30;105363;1263;61449;-64
2023/07/30 06:27:26;;;;;;;;;;;;;;;40.86;30.60;99807.05;104623;1262;61263;-62
2023/07/30 06:29:53;;;;;;;;;;;;;;;40.95;29.96;99809.11;105493;1259;65475;-61
2023/07/30 06:32:20;;;;;;;;;;;;;;;40.91;29.76;99803.59;104929;1260;61221;-61
2023/07/30 06:34:47;;;;;;;;;;;;;;;40.84;29.86;99800.97;104907;1260;64861;-61
2023/07/30 06:37:14;;;;;;;;;;;;;;;40.89;29.99;99797.11;105290;1262;61422;-62
2023/07/30 06:39:41;;;;;;;;;;;;;;;40.95;29.90;99794.83;105104;1262;61229;-61
2023/07/30 06:42:08;;;;;;;;;;;;;;;40.96;29.34;99790.52;105099;1260;64695;-62
2023/07/30 06:44:35;;;;;;;;;;;;;;;40.79;29.06;99788.44;104992;1262;61132;-62
2023/07/30 06:47:02;;;;;;;;;;;;;;;40.56;29.00;99785.34;104659;1260;64781;-64
2023/07/30 06:49:29;;;;;;;;;;;;;;;40.41;29.25;99783.45;105441;1259;61238;-65
2023/07/30 06:51:56;;;;;;;;;;;;;;;40.36;29.87;99781.52;104896;1262;61240;-62
2023/07/30 06:54:23;;;;;;;;;;;;;;;40.44;29.65;99779.98;104959;1259;66538;-61
2023/07/30 06:56:50;;;;;;;;;;;;;;;40.47;29.15;99772.27;104877;1262;61189;-62
2023/07/30 06:59:17;;;;;;;;;;;;;;;40.39;29.09;99773.38;105390;1259;63768;-65
2023/07/30 07:01:44;;;;;;;;;;;;;;;40.35;29.42;99775.83;104670;1263;59989;-62
2023/07/30 07:04:11;;;;;;;;;;;;;;;40.43;28.92;99774.38;105089;1260;61250;-62
2023/07/30 07:06:38;;;;;;;;;;;;;;;40.49;28.64;99774.44;104960;1259;67152;-61
2023/07/30 07:09:05;;;;;;;;;;;;;;;40.28;29.16;99774.76;105430;1260;61836;-61
2023/07/30 07:11:32;;;;;;;;;;;;;;;40.20;29.81;99771.52;105206;1262;63636;-65
2023/07/30 07:13:59;;;;;;;;;;;;;;;40.28;29.09;99770.55;104797;1261;61206;-61
2023/07/30 07:16:26;;;;;;;;;;;;;;;40.32;28.46;99769.98;105137;1258;61273;-62
2023/07/30 07:18:53;;;;;;;;;;;;;;;40.42;28.87;99770.19;104886;1262;66662;-62
2023/07/30 07:21:20;;;;;;;;;;;;;;;40.45;28.96;99769.86;105008;1259;61216;-62
2023/07/30 07:23:47;;;;;;;;;;;;;;;40.38;29.39;99770.19;104919;1262;74238;-61
2023/07/30 07:26:14;;;;;;;;;;;;;;;40.33;28.82;99768.96;104967;1262;61358;-61
2023/07/30 07:28:41;;;;;;;;;;;;;;;40.24;29.01;99766.27;105321;1259;61398;-62
2023/07/30 07:31:08;;;;;;;;;;;;;;;40.33;29.14;99770.14;105164;1259;66029;-61
2023/07/30 07:33:37;;;;;;;;;;;;;;;40.52;28.70;99770.92;105427;1260;61047;-64
2023/07/30 07:36:05;;;;;;;;;;;;;;;40.70;27.92;99766.08;104764;1260;64615;-62
2023/07/30 07:38:32;;;;;;;;;;;;;;;40.80;28.47;99768.20;104932;1260;61230;-62
2023/07/30 07:40:59;;;;;;;;;;;;;;;40.75;28.18;99767.98;105018;1260;61263;-62
2023/07/30 07:43:26;;;;;;;;;;;;;;;40.62;28.56;99764.16;104944;1262;66641;-62
2023/07/30 07:45:53;;;;;;;;;;;;;;;40.66;28.54;99761.10;105170;1262;61285;-65
2023/07/30 07:48:20;;;;;;;;;;;;;;;40.54;28.34;99759.73;104935;1260;64753;-62
2023/07/30 07:50:47;;;;;;;;;;;;;;;40.13;28.99;99760.27;105700;1258;61214;-62
2023/07/30 07:53:14;;;;;;;;;;;;;;;39.81;29.46;99761.38;104953;1258;61247;-62
2023/07/30 07:55:41;;;;;;;;;;;;;;;39.61;30.05;99757.18;104933;1259;66134;-64
2023/07/30 07:58:08;;;;;;;;;;;;;;;39.52;30.13;99753.92;105080;1261;61390;-63
2023/07/30 08:00:34;;;;;;;;;;;;;;;39.57;30.11;99752.52;104917;1260;63956;-61
2023/07/30 08:03:01;;;;;;;;;;;;;;;39.56;30.18;99749.78;104839;1260;61381;-62
2023/07/30 08:05:28;;;;;;;;;;;;;;;39.72;30.55;99749.84;104906;1260;61330;-62
2023/07/30 08:07:55;;;;;;;;;;;;;;;39.91;29.73;99746.47;105186;1259;64763;-63
2023/07/30 08:10:22;;;;;;;;;;;;;;;39.97;29.08;99743.64;105275;1263;61362;-64
2023/07/30 08:12:49;;;;;;;;;;;;;;;39.89;29.31;99746.39;108741;1258;64086;-63
2023/07/30 08:15:16;;;;;;;;;;;;;;;39.68;29.91;99748.77;108762;1258;59135;-63
2023/07/30 08:17:43;;;;;;;;;;;;;;;39.39;30.02;99744.82;106642;1259;61231;-62
2023/07/30 08:20:10;;;;;;;;;;;;;;;39.26;30.62;99738.90;105621;1258;64754;-63
2023/07/30 08:22:37;;;;;;;;;;;;;;;39.23;31.39;99736.70;105442;1259;61570;-62
2023/07/30 08:25:04;;;;;;;;;;;;;;;39.02;30.86;99736.84;105382;1262;70932;-61
2023/07/30 08:27:31;;;;;;;;;;;;;;;38.63;31.54;99735.36;105270;1261;61342;-62
2023/07/30 08:29:58;;;;;;;;;;;;;;;38.30;33.02;99735.53;105228;1259;61299;-65
2023/07/30 08:32:25;;;;;;;;;;;;;;;38.18;33.17;99728.56;105841;1258;65540;-64
2023/07/30 08:34:52;;;;;;;;;;;;;;;38.17;33.92;99723.04;105309;1262;61141;-62
2023/07/30 08:37:18;;;;;;;;;;;;;;;38.25;33.82;99723.00;105260;1262;62632;-62
2023/07/30 08:39:45;;;;;;;;;;;;;;;38.41;33.32;99721.83;105174;1259;61265;-61
2023/07/30 08:42:16;;;;;;;;;;;;;;;38.57;31.79;99720.70;105250;1258;60009;-63
2023/07/30 08:44:43;;;;;;;;;;;;;;;38.59;32.09;99718.92;105303;1259;67207;-61
2023/07/30 08:47:10;;;;;;;;;;;;;;;38.51;31.17;99718.20;105275;1260;61151;-62
2023/07/30 08:49:37;;;;;;;;;;;;;;;38.45;31.55;99717.25;105336;1262;64202;-62
2023/07/30 08:52:04;;;;;;;;;;;;;;;38.36;30.24;99715.27;105280;1262;61189;-64
2023/07/30 08:54:31;;;;;;;;;;;;;;;38.18;30.26;99712.78;105040;1260;61533;-62
2023/07/30 08:56:58;;;;;;;;;;;;;;;38.17;29.77;99711.14;105399;1259;64865;-63
2023/07/30 08:59:25;;;;;;;;;;;;;;;38.36;29.74;99710.83;105172;1260;61285;-62
2023/07/30 09:01:52;;;;;;;;;;;;;;;38.52;29.16;99704.20;105249;1260;63921;-61
2023/07/30 09:04:18;;;;;;;;;;;;;;;38.43;28.50;99702.69;105519;1259;61300;-64
2023/07/30 09:06:49;;;;;;;;;;;;;;;37.91;28.76;99707.17;105602;1259;61353;-63
2023/07/30 09:09:19;;;;;;;;;;;;;;;37.23;30.34;99706.17;105251;1262;66219;-61
2023/07/30 09:11:54;;;;;;;;;;;;;;;36.74;32.11;99702.92;105391;1260;61267;-62
2023/07/30 09:14:21;;;;;;;;;;;;;;;36.47;32.49;99703.71;105637;1259;64093;-62
2023/07/30 09:16:48;;;;;;;;;;;;;;;36.38;31.34;99701.11;105199;1259;61248;-62
2023/07/30 09:19:17;;;;;;;;;;;;;;;36.49;31.07;99695.50;105315;1260;61154;-61
2023/07/30 09:21:45;;;;;;;;;;;;;;;36.85;30.93;99699.16;105251;1258;64513;-61
2023/07/30 09:24:11;;;;;;;;;;;;;;;37.32;30.10;99698.80;105828;1262;61257;-62
2023/07/30 09:26:45;;;;;;;;;;;;;;;37.63;29.07;99695.60;105465;1259;64008;-64
2023/07/30 09:29:12;;;;;;;;;;;;;;;37.87;28.47;99691.95;104993;1260;61365;-62
2023/07/30 09:31:49;;;;;;;;;;;;;;;38.06;28.02;99683.88;105336;1259;61100;-61
2023/07/30 09:34:17;;;;;;;;;;;;;;;38.21;28.23;99685.40;105031;1260;65998;-62
2023/07/30 09:36:44;;;;;;;;;;;;;;;38.38;27.69;99691.01;105210;1260;61302;-62
2023/07/30 09:39:15;;;;;;;;;;;;;;;38.51;27.08;99683.58;105276;1262;64082;-62
2023/07/30 09:41:42;;;;;;;;;;;;;;;38.63;27.88;99683.38;105104;1260;61342;-63
2023/07/30 09:44:09;;;;;;;;;;;;;;;38.79;27.17;99684.80;105206;1260;61267;-63
2023/07/30 09:46:46;;;;;;;;;;;;;;;38.83;27.04;99681.55;105395;1262;74404;-62
2023/07/30 09:49:13;;;;;;;;;;;;;;;38.88;27.21;99677.58;105267;1259;61282;-60
2023/07/30 09:51:40;;;;;;;;;;;;;;;38.99;26.99;99679.30;105542;1262;64091;-62
2023/07/30 09:54:08;;;;;;;;;;;;;;;38.95;27.04;99677.66;105241;1262;59702;-61
2023/07/30 09:56:38;;;;;;;;;;;;;;;38.95;27.43;99680.86;105402;1260;61261;-62
2023/07/30 09:59:05;;;;;;;;;;;;;;;38.87;27.15;99676.25;105366;1259;66060;-61
2023/07/30 10:01:37;;;;;;;;;;;;;;;38.70;28.05;99677.15;105301;1260;61347;-65
2023/07/30 10:04:07;;;;;;;;;;;;;;;38.64;27.99;99679.86;105221;1259;64077;-63
2023/07/30 10:06:35;;;;;;;;;;;;;;;38.62;27.73;99686.31;105097;1259;61230;-65
2023/07/30 10:09:02;;;;;;;;;;;;;;;38.65;27.74;99681.73;105223;1262;61237;-60
2023/07/30 10:11:29;;;;;;;;;;;;;;;38.71;28.13;99682.21;105462;1262;65878;-62
2023/07/30 10:13:55;;;;;;;;;;;;;;;38.77;27.67;99677.70;105165;1259;61263;-61
2023/07/30 10:16:26;;;;;;;;;;;;;;;38.74;26.24;99674.05;105330;1262;62862;-62
2023/07/30 10:18:59;;;;;;;;;;;;;;;38.55;25.78;99678.06;105184;1262;61238;-61
2023/07/30 10:21:26;;;;;;;;;;;;;;;38.36;26.44;99678.48;105298;1262;61277;-64
2023/07/30 10:24:00;;;;;;;;;;;;;;;38.16;27.02;99671.55;105139;1262;66146;-60
2023/07/30 10:26:33;;;;;;;;;;;;;;;37.94;27.68;99676.52;105388;1259;61344;-62
2023/07/30 10:29:19;;;;;;;;;;;;;;;37.91;28.85;99680.31;105276;1262;64174;-60
2023/07/30 10:31:49;;;;;;;;;;;;;;;38.07;28.87;99681.00;105333;1262;61333;-60
2023/07/30 10:34:16;;;;;;;;;;;;;;;38.23;29.09;99676.16;105712;1262;61254;-62
2023/07/30 10:36:44;;;;;;;;;;;;;;;38.21;29.48;99676.62;105228;1262;66063;-60
2023/07/30 10:39:15;;;;;;;;;;;;;;;38.18;30.06;99676.47;105400;1259;61365;-61
2023/07/30 10:41:43;;;;;;;;;;;;;;;38.13;29.53;99680.10;105175;1260;64568;-60
2023/07/30 10:44:18;;;;;;;;;;;;;;;37.98;29.83;99680.58;105690;1259;61282;-61
2023/07/30 10:46:45;;;;;;;;;;;;;;;37.86;30.01;99682.30;105038;1262;61254;-63
2023/07/30 10:49:12;;;;;;;;;;;;;;;37.72;29.83;99684.63;105000;1262;64586;-63
2023/07/30 10:51:39;;;;;;;;;;;;;;;37.65;30.25;99678.36;105287;1259;61385;-63
2023/07/30 10:54:07;;;;;;;;;;;;;;;37.59;30.34;99674.77;105498;1259;64189;-64
2023/07/30 10:56:34;;;;;;;;;;;;;;;37.26;29.97;99683.52;105615;1259;59727;-62
2023/07/30 10:59:02;;;;;;;;;;;;;;;36.72;31.09;99682.42;105432;1260;61215;-65
2023/07/30 11:01:29;;;;;;;;;;;;;;;36.39;32.11;99681.83;105351;1259;66133;-64
2023/07/30 11:03:56;;;;;;;;;;;;;;;36.34;33.06;99682.38;105305;1262;60411;-63
2023/07/30 11:06:24;;;;;;;;;;;;;;;36.39;32.39;99680.11;105628;1258;63072;-63
2023/07/30 11:08:51;;;;;;;;;;;;;;;36.41;32.02;99675.24;105243;1263;61260;-62
2023/07/30 11:11:18;;;;;;;;;;;;;;;36.40;31.96;99679.66;105150;1259;61261;-63
2023/07/30 11:13:46;;;;;;;;;;;;;;;36.44;32.15;99679.46;105162;1260;66105;-62
2023/07/30 11:16:13;;;;;;;;;;;;;;;36.27;32.18;99679.80;105484;1263;61356;-64
2023/07/30 11:18:41;;;;;;;;;;;;;;;35.99;33.30;99680.33;105487;1259;62902;-62
2023/07/30 11:21:08;;;;;;;;;;;;;;;35.86;33.20;99678.11;105222;1260;61231;-64
2023/07/30 11:23:35;;;;;;;;;;;;;;;35.90;32.91;99681.12;105112;1262;59576;-63
2023/07/30 11:26:03;;;;;;;;;;;;;;;36.07;32.10;99679.81;105374;1259;66127;-61
2023/07/30 11:28:33;;;;;;;;;;;;;;;36.24;31.56;99674.83;105319;1259;61217;-62
2023/07/30 11:31:07;;;;;;;;;;;;;;;36.42;32.00;99675.10;105243;1260;63973;-62
2023/07/30 11:33:33;;;;;;;;;;;;;;;36.61;32.23;99675.08;105161;1258;61252;-62
2023/07/30 11:36:01;;;;;;;;;;;;;;;36.67;31.57;99673.83;105243;1260;61170;-65
2023/07/30 11:38:28;;;;;;;;;;;;;;;36.39;32.08;99682.38;105673;1260;67166;-63
2023/07/30 11:40:54;;;;;;;;;;;;;;;36.06;33.52;99684.45;105151;1265;61372;-62
2023/07/30 11:43:22;;;;;;;;;;;;;;;35.97;34.82;99684.16;105383;1260;64104;-63
2023/07/30 11:45:49;;;;;;;;;;;;;;;36.10;35.11;99688.38;104919;1260;61232;-62
2023/07/30 11:48:16;;;;;;;;;;;;;;;36.23;34.86;99687.99;105434;1260;61305;-65
2023/07/30 11:50:46;;;;;;;;;;;;;;;36.26;35.32;99688.80;104940;1262;65842;-64
2023/07/30 11:53:13;;;;;;;;;;;;;;;36.29;34.76;99690.55;105415;1259;61477;-64
2023/07/30 11:55:40;;;;;;;;;;;;;;;36.13;33.77;99689.58;104963;1260;63761;-63
2023/07/30 11:58:07;;;;;;;;;;;;;;;35.73;34.59;99689.66;105312;1260;61239;-61
2023/07/30 12:00:34;;;;;;;;;;;;;;;35.33;35.54;99688.19;105406;1259;61311;-62
2023/07/30 12:03:04;;;;;;;;;;;;;;;34.96;36.32;99686.17;105158;1260;64771;-66
2023/07/30 12:05:38;;;;;;;;;;;;;;;34.59;38.26;99688.59;105878;1259;61317;-64
2023/07/30 12:08:07;;;;;;;;;;;;;;;34.37;40.40;99692.80;106508;1260;64077;-63
2023/07/30 12:10:40;;;;;;;;;;;;;;;34.25;40.47;99691.78;105530;1262;61193;-66
2023/07/30 12:13:17;;;;;;;;;;;;;;;34.23;42.85;99685.85;105267;1264;61181;-63
2023/07/30 12:15:44;;;;;;;;;;;;;;;34.36;43.74;99684.66;105395;1262;65974;-63
2023/07/30 12:18:11;;;;;;;;;;;;;;;34.62;41.05;99687.41;105267;1262;61348;-62
2023/07/30 12:20:38;;;;;;;;;;;;;;;34.78;41.07;99685.08;105426;1261;62849;-65
2023/07/30 12:23:04;;;;;;;;;;;;;;;34.87;40.92;99689.02;105396;1262;61225;-63
2023/07/30 12:25:31;;;;;;;;;;;;;;;35.01;40.62;99681.23;104789;1259;61266;-63
2023/07/30 12:27:59;;;;;;;;;;;;;;;35.13;39.82;99682.14;104944;1262;65981;-64
2023/07/30 12:30:27;;;;;;;;;;;;;;;35.14;39.41;99686.17;105343;1260;61381;-65
2023/07/30 12:32:54;;;;;;;;;;;;;;;35.15;40.42;99683.88;104540;1262;64651;-66
2023/07/30 12:35:21;;;;;;;;;;;;;;;35.21;40.78;99682.98;104941;1260;61160;-63